createdAt,value
2023-10-29T00:00:42.157Z,95.91
2023-10-29T00:03:30.498Z,96.20
2023-10-29T00:05:58.727Z,96.67
2023-10-29T00:08:27.194Z,96.50
2023-10-29T00:10:56.166Z,97.18
2023-10-29T00:13:26.715Z,96.76
2023-10-29T00:15:56.054Z,96.47
2023-10-29T00:18:24.392Z,96.40
2023-10-29T00:20:52.491Z,96.54
2023-10-29T00:23:20.874Z,97.34
2023-10-29T00:25:48.886Z,97.51
2023-10-29T00:28:17.145Z,97.01
2023-10-29T00:30:45.176Z,96.74
2023-10-29T00:33:14.866Z,97.08
2023-10-29T00:35:42.881Z,97.67
2023-10-29T00:38:11.223Z,97.63
2023-10-29T00:40:39.074Z,97.58
2023-10-29T00:43:07.366Z,97.81
2023-10-29T00:45:35.753Z,97.27
2023-10-29T00:48:04.160Z,97.70
2023-10-29T00:50:33.952Z,97.67
2023-10-29T00:53:02.244Z,97.53
2023-10-29T00:55:31.240Z,98.91
2023-10-29T00:57:59.622Z,98.51
2023-10-29T01:00:27.685Z,98.49
2023-10-29T01:02:56.141Z,98.26
2023-10-29T01:05:24.374Z,98.87
2023-10-29T01:07:54.755Z,98.50
2023-10-29T01:10:22.833Z,98.35
2023-10-29T01:12:51.205Z,97.91
2023-10-29T01:15:19.306Z,98.38
2023-10-29T01:17:47.639Z,98.21
2023-10-29T01:20:15.687Z,98.00
2023-10-29T01:22:44.281Z,97.54
2023-10-29T01:25:13.928Z,97.58
2023-10-29T01:27:43.028Z,96.92
2023-10-29T01:30:11.699Z,97.28
2023-10-29T01:32:40.490Z,97.20
2023-10-29T01:35:08.692Z,97.06
2023-10-29T01:37:37.019Z,96.30
2023-10-29T01:40:05.307Z,96.94
2023-10-29T01:42:34.930Z,96.79
2023-10-29T01:45:05.203Z,96.78
2023-10-29T01:47:33.527Z,97.19
2023-10-29T01:50:01.546Z,97.82
2023-10-29T01:52:29.773Z,97.50
2023-10-29T01:54:58.570Z,97.25
2023-10-29T01:57:26.914Z,97.13
2023-10-29T01:59:56.552Z,98.02
2023-10-29T02:02:24.865Z,98.06
2023-10-29T02:04:52.870Z,98.66
2023-10-29T02:07:21.177Z,98.50
2023-10-29T02:09:49.116Z,98.33
2023-10-29T02:12:17.460Z,97.48
2023-10-29T02:14:45.715Z,98.51
2023-10-29T02:17:15.601Z,98.79
2023-10-29T02:19:43.899Z,98.91
2023-10-29T02:22:13.583Z,98.51
2023-10-29T02:24:41.729Z,98.99
2023-10-29T02:27:09.968Z,98.89
2023-10-29T02:29:38.046Z,98.45
2023-10-29T02:32:06.660Z,99.19
2023-10-29T02:34:34.734Z,98.49
2023-10-29T02:37:03.068Z,98.71
2023-10-29T02:39:32.460Z,98.96
2023-10-29T02:42:00.889Z,99.12
2023-10-29T02:44:29.151Z,99.28
2023-10-29T02:46:57.465Z,98.59
2023-10-29T02:49:25.533Z,98.87
2023-10-29T02:51:53.813Z,99.35
2023-10-29T02:54:21.972Z,98.87
2023-10-29T02:56:51.685Z,98.80
2023-10-29T02:59:19.686Z,99.00
2023-10-29T03:01:47.934Z,98.70
2023-10-29T03:04:16.058Z,98.13
2023-10-29T03:06:44.468Z,97.87
2023-10-29T03:09:12.607Z,97.30
2023-10-29T03:11:40.979Z,97.27
2023-10-29T03:14:10.489Z,97.70
2023-10-29T03:16:38.794Z,97.89
2023-10-29T03:19:06.876Z,98.28
2023-10-29T03:21:35.226Z,98.22
2023-10-29T03:24:03.213Z,98.18
2023-10-29T03:26:31.586Z,98.09
2023-10-29T03:28:59.597Z,98.18
2023-10-29T03:31:39.813Z,97.97
2023-10-29T03:34:09.237Z,97.20
2023-10-29T03:36:37.597Z,97.90
2023-10-29T03:39:06.685Z,97.31
2023-10-29T03:41:34.993Z,97.20
2023-10-29T03:44:03.169Z,96.82
2023-10-29T03:46:31.502Z,97.06
2023-10-29T03:49:01.205Z,97.37
2023-10-29T03:51:29.818Z,97.48
2023-10-29T03:53:57.884Z,97.30
2023-10-29T03:56:26.232Z,97.37
2023-10-29T03:58:54.323Z,97.18
2023-10-29T04:01:22.645Z,97.03
2023-10-29T04:03:51.541Z,97.04
2023-10-29T04:06:21.243Z,97.20
2023-10-29T04:08:49.304Z,96.95
2023-10-29T04:11:17.563Z,96.76
2023-10-29T04:13:45.683Z,96.75
2023-10-29T04:16:14.628Z,96.25
2023-10-29T04:18:42.729Z,97.00
2023-10-29T04:21:11.178Z,97.05
2023-10-29T04:23:41.034Z,97.17
2023-10-29T04:26:09.349Z,96.91
2023-10-29T04:28:37.708Z,96.51
2023-10-29T04:31:06.362Z,96.40
2023-10-29T04:33:34.926Z,96.40
2023-10-29T04:36:03.362Z,96.29
2023-10-29T04:38:31.536Z,96.19
2023-10-29T04:41:01.309Z,96.09
2023-10-29T04:43:29.320Z,96.86
2023-10-29T04:45:58.336Z,96.15
2023-10-29T04:48:26.412Z,96.26
2023-10-29T04:50:54.812Z,95.66
2023-10-29T04:53:22.868Z,95.84
2023-10-29T04:55:51.235Z,95.47
2023-10-29T04:58:20.668Z,95.78
2023-10-29T05:00:49.079Z,95.24
2023-10-29T05:03:17.239Z,95.29
2023-10-29T05:05:46.715Z,95.26
2023-10-29T05:08:15.730Z,95.38
2023-10-29T05:10:45.315Z,95.68
2023-10-29T05:13:13.344Z,95.60
2023-10-29T05:15:42.964Z,95.15
2023-10-29T05:18:11.014Z,95.27
2023-10-29T05:20:39.585Z,94.64
2023-10-29T05:23:08.593Z,95.15
2023-10-29T05:25:40.051Z,95.50
2023-10-29T05:28:08.059Z,95.31
2023-10-29T05:30:36.490Z,95.36
2023-10-29T05:33:05.907Z,95.26
2023-10-29T05:35:34.328Z,95.40
2023-10-29T05:38:02.410Z,95.16
2023-10-29T05:40:31.184Z,95.13
2023-10-29T05:42:59.286Z,94.80
2023-10-29T05:45:28.147Z,94.36
2023-10-29T05:47:56.750Z,94.57
2023-10-29T05:50:27.087Z,94.77
2023-10-29T05:52:55.178Z,94.81
2023-10-29T05:55:23.891Z,94.15
2023-10-29T05:57:51.973Z,94.57
2023-10-29T06:00:20.374Z,94.30
2023-10-29T06:02:48.524Z,93.91
2023-10-29T06:05:16.936Z,93.83
2023-10-29T06:07:46.374Z,93.81
2023-10-29T06:10:16.254Z,93.65
2023-10-29T06:12:44.302Z,93.91
2023-10-29T06:15:13.261Z,94.04
2023-10-29T06:17:42.951Z,94.34
2023-10-29T06:20:12.747Z,94.11
2023-10-29T06:22:40.756Z,93.60
2023-10-29T06:25:11.861Z,92.34
2023-10-29T06:27:39.825Z,91.96
2023-10-29T06:30:09.158Z,92.31
2023-10-29T06:32:37.460Z,92.19
2023-10-29T06:35:06.138Z,92.27
2023-10-29T06:37:34.248Z,92.36
2023-10-29T06:40:02.635Z,91.88
2023-10-29T06:42:32.083Z,91.86
2023-10-29T06:45:00.408Z,91.93
2023-10-29T06:47:28.442Z,91.42
2023-10-29T06:49:57.059Z,91.49
2023-10-29T06:52:25.373Z,91.09
2023-10-29T06:54:54.815Z,91.27
2023-10-29T06:57:22.828Z,90.76
2023-10-29T06:59:53.322Z,91.24
2023-10-29T07:02:21.779Z,91.43
2023-10-29T07:04:50.530Z,91.41
2023-10-29T07:07:19.327Z,90.61
2023-10-29T07:09:47.589Z,90.37
2023-10-29T07:12:17.211Z,89.62
2023-10-29T07:14:46.717Z,89.27
2023-10-29T07:17:16.290Z,88.51
2023-10-29T07:19:44.626Z,88.18
2023-10-29T07:22:12.643Z,87.46
2023-10-29T07:24:40.954Z,87.45
2023-10-29T07:27:09.317Z,87.12
2023-10-29T07:29:38.780Z,87.22
2023-10-29T07:32:07.052Z,86.89
2023-10-29T07:34:36.972Z,87.08
2023-10-29T07:37:05.172Z,87.25
2023-10-29T07:39:33.423Z,87.15
2023-10-29T07:42:02.669Z,87.59
2023-10-29T07:44:31.054Z,88.68
2023-10-29T07:46:59.633Z,88.18
2023-10-29T07:49:28.023Z,88.03
2023-10-29T07:51:57.452Z,87.87
2023-10-29T07:54:25.687Z,87.99
2023-10-29T07:56:54.613Z,87.79
2023-10-29T07:59:22.872Z,88.14
2023-10-29T08:01:51.122Z,87.85
2023-10-29T08:04:19.511Z,89.12
2023-10-29T08:06:47.609Z,88.82
2023-10-29T08:09:17.980Z,88.72
2023-10-29T08:11:46.164Z,88.93
2023-10-29T08:14:14.444Z,88.62
2023-10-29T08:16:42.724Z,88.56
2023-10-29T08:19:11.177Z,88.04
2023-10-29T08:21:39.253Z,87.96
2023-10-29T08:24:07.984Z,88.21
2023-10-29T08:26:37.500Z,88.35
2023-10-29T08:29:05.944Z,88.13
2023-10-29T08:31:34.064Z,88.80
2023-10-29T08:34:02.399Z,88.93
2023-10-29T08:36:30.640Z,88.20
2023-10-29T08:38:59.076Z,87.81
2023-10-29T08:41:27.124Z,88.21
2023-10-29T08:43:57.334Z,87.70
2023-10-29T08:46:25.662Z,88.39
2023-10-29T08:48:54.129Z,88.49
2023-10-29T08:51:22.254Z,89.62
2023-10-29T08:53:51.078Z,89.16
2023-10-29T08:56:19.046Z,91.09
2023-10-29T08:58:47.455Z,92.01
2023-10-29T09:01:18.711Z,92.85
2023-10-29T09:03:47.191Z,93.61
2023-10-29T09:06:15.443Z,93.36
2023-10-29T09:08:43.864Z,92.73
2023-10-29T09:11:14.913Z,93.26
2023-10-29T09:13:43.181Z,93.28
2023-10-29T09:16:11.981Z,94.17
2023-10-29T09:18:42.075Z,94.15
2023-10-29T09:21:10.442Z,94.72
2023-10-29T09:23:39.037Z,94.69
2023-10-29T09:26:08.363Z,95.38
2023-10-29T09:28:36.867Z,95.06
2023-10-29T09:31:05.492Z,94.85
2023-10-29T09:33:33.798Z,94.42
2023-10-29T09:36:04.272Z,94.13
2023-10-29T09:38:32.599Z,94.33
2023-10-29T09:41:00.673Z,94.28
2023-10-29T09:43:33.994Z,93.77
2023-10-29T09:46:05.498Z,93.80
2023-10-29T09:48:34.170Z,94.12
2023-10-29T09:51:04.785Z,95.56
2023-10-29T09:53:34.114Z,95.41
2023-10-29T09:56:02.143Z,95.29
2023-10-29T09:58:30.467Z,95.68
2023-10-29T10:00:59.468Z,95.92
2023-10-29T10:03:28.621Z,95.73
2023-10-29T10:05:57.170Z,95.84
2023-10-29T10:08:27.912Z,95.80
2023-10-29T10:10:56.497Z,96.61
2023-10-29T10:13:37.460Z,96.95
2023-10-29T10:16:10.234Z,96.99
2023-10-29T10:18:55.432Z,96.90
2023-10-29T10:21:24.718Z,96.25
2023-10-29T10:23:56.369Z,97.28
2023-10-29T10:26:31.403Z,96.15
2023-10-29T10:29:00.937Z,95.55
2023-10-29T10:31:30.430Z,95.89
2023-10-29T10:34:12.113Z,96.42
2023-10-29T10:36:40.413Z,96.59
2023-10-29T10:39:10.804Z,95.72
2023-10-29T10:41:43.781Z,96.24
2023-10-29T10:44:13.039Z,95.75
2023-10-29T10:46:43.780Z,95.91
2023-10-29T10:49:12.896Z,96.26
2023-10-29T10:51:42.082Z,96.63
2023-10-29T10:54:11.924Z,96.34
2023-10-29T10:56:40.369Z,96.44
2023-10-29T10:59:11.154Z,95.38
2023-10-29T11:01:39.924Z,95.82
2023-10-29T11:04:09.622Z,95.87
2023-10-29T11:06:39.027Z,95.54
2023-10-29T11:09:13.535Z,94.99
2023-10-29T11:11:47.232Z,95.57
2023-10-29T11:14:16.126Z,96.20
2023-10-29T11:16:48.420Z,96.46
2023-10-29T11:19:37.176Z,95.75
2023-10-29T11:22:15.051Z,96.55
2023-10-29T11:24:43.609Z,96.15
2023-10-29T11:27:30.303Z,96.83
2023-10-29T11:30:13.938Z,96.61
2023-10-29T11:32:42.953Z,96.61
2023-10-29T11:35:21.876Z,97.27
2023-10-29T11:37:50.601Z,96.98
2023-10-29T11:40:32.775Z,97.22
2023-10-29T11:43:15.926Z,97.54
2023-10-29T11:45:53.523Z,98.05
2023-10-29T11:48:22.044Z,99.07
2023-10-29T11:51:17.859Z,98.30
2023-10-29T11:53:45.929Z,99.69
2023-10-29T11:56:14.929Z,99.54
2023-10-29T11:58:42.968Z,99.41
2023-10-29T12:01:12.831Z,99.16
2023-10-29T12:03:40.991Z,99.11
2023-10-29T12:06:09.323Z,98.31
2023-10-29T12:08:37.392Z,99.25
2023-10-29T12:11:07.820Z,99.39
2023-10-29T12:13:43.290Z,100.00
2023-10-29T12:16:14.682Z,100.00
2023-10-29T12:18:42.934Z,100.00
2023-10-29T12:21:11.962Z,100.00
2023-10-29T12:23:40.120Z,100.00
2023-10-29T12:26:10.981Z,100.00
2023-10-29T12:28:39.450Z,100.00
2023-10-29T12:31:13.063Z,100.00
2023-10-29T12:33:42.432Z,100.00
2023-10-29T12:36:16.508Z,100.00
2023-10-29T12:38:44.801Z,100.00
2023-10-29T12:41:16.752Z,100.00
2023-10-29T12:43:46.523Z,100.00
2023-10-29T12:46:15.266Z,100.00
2023-10-29T12:49:01.138Z,100.00
2023-10-29T12:51:31.393Z,100.00
2023-10-29T12:54:12.576Z,100.00
2023-10-29T12:56:50.736Z,100.00
2023-10-29T12:59:19.426Z,100.00
2023-10-29T13:01:58.061Z,100.00
2023-10-29T13:04:28.551Z,100.00
2023-10-29T13:06:58.635Z,100.00
2023-10-29T13:09:29.688Z,100.00
2023-10-29T13:11:58.358Z,100.00
2023-10-29T13:14:26.543Z,100.00
2023-10-29T13:16:55.389Z,100.00
2023-10-29T13:19:23.549Z,100.00
2023-10-29T13:21:53.820Z,100.00
2023-10-29T13:24:22.462Z,100.00
2023-10-29T13:26:52.325Z,100.00
2023-10-29T13:29:21.098Z,100.00
2023-10-29T13:31:49.381Z,100.00
2023-10-29T13:34:17.401Z,100.00
2023-10-29T13:36:45.982Z,100.00
2023-10-29T13:39:20.190Z,100.00
2023-10-29T13:41:51.842Z,100.00
2023-10-29T13:44:21.377Z,100.00
2023-10-29T13:46:50.173Z,100.00
2023-10-29T13:49:18.233Z,100.00
2023-10-29T13:51:48.039Z,100.00
2023-10-29T13:54:17.514Z,100.00
2023-10-29T13:56:45.901Z,100.00
2023-10-29T13:59:15.615Z,100.00
2023-10-29T14:01:44.255Z,100.00
2023-10-29T14:04:12.773Z,100.00
2023-10-29T14:06:41.135Z,100.00
2023-10-29T14:09:10.142Z,100.00
2023-10-29T14:11:40.023Z,100.00
2023-10-29T14:14:08.713Z,100.00
2023-10-29T14:16:38.513Z,100.00
2023-10-29T14:19:07.247Z,100.00
2023-10-29T14:21:35.841Z,100.00
2023-10-29T14:24:04.961Z,100.00
2023-10-29T14:26:33.838Z,100.00
2023-10-29T14:29:03.201Z,100.00
2023-10-29T14:31:31.521Z,100.00
2023-10-29T14:33:59.560Z,100.00
2023-10-29T14:36:27.946Z,100.00
2023-10-29T14:38:56.187Z,100.00
2023-10-29T14:41:24.472Z,100.00
2023-10-29T14:43:52.487Z,100.00
2023-10-29T14:46:22.187Z,100.00
2023-10-29T14:48:50.539Z,100.00
2023-10-29T14:51:18.987Z,100.00
2023-10-29T14:53:47.198Z,100.00
2023-10-29T14:56:15.623Z,100.00
2023-10-29T14:58:43.680Z,100.00
2023-10-29T15:01:12.149Z,100.00
2023-10-29T15:03:41.721Z,100.00
2023-10-29T15:06:11.143Z,100.00
2023-10-29T15:08:39.509Z,100.00
2023-10-29T15:11:08.325Z,100.00
2023-10-29T15:13:46.497Z,100.00
2023-10-29T15:16:16.722Z,100.00
2023-10-29T15:18:46.516Z,100.00
2023-10-29T15:21:16.509Z,100.00
2023-10-29T15:23:44.620Z,100.00
2023-10-29T15:26:17.667Z,100.00
2023-10-29T15:28:45.918Z,100.00
2023-10-29T15:31:14.489Z,100.00
2023-10-29T15:33:42.641Z,100.00
2023-10-29T15:36:13.121Z,100.00
2023-10-29T15:38:42.774Z,100.00
2023-10-29T15:41:11.250Z,100.00
2023-10-29T15:43:39.512Z,100.00
2023-10-29T15:46:09.693Z,100.00
2023-10-29T15:48:38.802Z,100.00
2023-10-29T15:51:10.024Z,100.00
2023-10-29T15:53:39.972Z,100.00
2023-10-29T15:56:09.019Z,100.00
2023-10-29T15:58:37.082Z,100.00
2023-10-29T16:01:05.640Z,100.00
2023-10-29T16:03:33.814Z,100.00
2023-10-29T16:06:08.370Z,100.00
2023-10-29T16:08:39.758Z,100.00
2023-10-29T16:11:10.122Z,100.00
2023-10-29T16:13:39.187Z,100.00
2023-10-29T16:16:10.253Z,100.00
2023-10-29T16:18:38.649Z,100.00
2023-10-29T16:21:07.093Z,100.00
2023-10-29T16:23:35.252Z,100.00
2023-10-29T16:26:03.593Z,100.00
2023-10-29T16:28:33.067Z,100.00
2023-10-29T16:31:01.393Z,100.00
2023-10-29T16:33:29.553Z,100.00
2023-10-29T16:35:59.748Z,100.00
2023-10-29T16:38:29.739Z,100.00
2023-10-29T16:41:01.824Z,100.00
2023-10-29T16:43:30.541Z,100.00
2023-10-29T16:46:00.502Z,100.00
2023-10-29T16:48:29.071Z,100.00
2023-10-29T16:51:03.287Z,100.00
2023-10-29T16:53:32.492Z,100.00
2023-10-29T16:56:04.199Z,100.00
2023-10-29T16:58:32.818Z,100.00
2023-10-29T17:01:03.170Z,100.00
2023-10-29T17:03:31.744Z,100.00
2023-10-29T17:06:00.447Z,100.00
2023-10-29T17:08:29.296Z,100.00
2023-10-29T17:11:01.333Z,100.00
2023-10-29T17:13:31.317Z,100.00
2023-10-29T17:16:00.645Z,100.00
2023-10-29T17:18:30.914Z,100.00
2023-10-29T17:21:01.300Z,100.00
2023-10-29T17:23:29.930Z,100.00
2023-10-29T17:25:59.107Z,100.00
2023-10-29T17:28:27.580Z,100.00
2023-10-29T17:30:56.745Z,100.00
2023-10-29T17:33:26.768Z,100.00
2023-10-29T17:35:56.808Z,100.00
2023-10-29T17:38:25.216Z,100.00
2023-10-29T17:40:53.973Z,100.00
2023-10-29T17:43:25.717Z,100.00
2023-10-29T17:45:54.448Z,100.00
2023-10-29T17:48:22.908Z,100.00
2023-10-29T17:50:57.722Z,100.00
2023-10-29T17:53:25.880Z,100.00
2023-10-29T17:55:54.347Z,100.00
2023-10-29T17:58:22.921Z,100.00
2023-10-29T18:00:51.838Z,100.00
2023-10-29T18:03:20.066Z,100.00
2023-10-29T18:05:48.873Z,100.00
2023-10-29T18:08:21.787Z,100.00
2023-10-29T18:10:51.156Z,100.00
2023-10-29T18:13:19.355Z,100.00
2023-10-29T18:15:48.832Z,100.00
2023-10-29T18:18:18.083Z,100.00
2023-10-29T18:20:46.965Z,100.00
2023-10-29T18:23:15.395Z,100.00
2023-10-29T18:25:46.098Z,100.00
2023-10-29T18:28:14.300Z,100.00
2023-10-29T18:30:43.392Z,100.00
2023-10-29T18:33:11.811Z,100.00
2023-10-29T18:35:40.335Z,100.00
2023-10-29T18:38:08.963Z,100.00
2023-10-29T18:40:38.161Z,100.00
2023-10-29T18:43:08.111Z,100.00
2023-10-29T18:45:41.571Z,100.00
2023-10-29T18:48:10.028Z,100.00
2023-10-29T18:50:38.961Z,100.00
2023-10-29T18:53:07.251Z,100.00
2023-10-29T18:55:37.110Z,100.00
2023-10-29T18:58:07.779Z,100.00
2023-10-29T19:00:40.962Z,100.00
2023-10-29T19:03:12.913Z,100.00
2023-10-29T19:05:42.649Z,100.00
2023-10-29T19:08:10.773Z,100.00
2023-10-29T19:10:39.222Z,100.00
2023-10-29T19:13:08.960Z,100.00
2023-10-29T19:15:37.651Z,100.00
2023-10-29T19:18:06.885Z,100.00
2023-10-29T19:20:35.395Z,100.00
2023-10-29T19:23:03.613Z,100.00
2023-10-29T19:25:36.782Z,100.00
2023-10-29T19:28:06.285Z,100.00
2023-10-29T19:30:39.918Z,100.00
2023-10-29T19:33:09.693Z,100.00
2023-10-29T19:35:38.379Z,100.00
2023-10-29T19:38:08.565Z,100.00
2023-10-29T19:40:37.329Z,100.00
2023-10-29T19:43:05.675Z,100.00
2023-10-29T19:45:36.827Z,100.00
2023-10-29T19:48:08.168Z,100.00
2023-10-29T19:50:39.509Z,100.00
2023-10-29T19:53:07.772Z,100.00
2023-10-29T19:55:40.806Z,100.00
2023-10-29T19:58:10.138Z,100.00
2023-10-29T20:00:38.604Z,100.00
2023-10-29T20:03:08.850Z,100.00
2023-10-29T20:05:37.827Z,100.00
2023-10-29T20:08:06.479Z,100.00
2023-10-29T20:10:36.455Z,100.00
2023-10-29T20:13:04.678Z,100.00
2023-10-29T20:15:35.125Z,100.00
2023-10-29T20:18:04.143Z,100.00
2023-10-29T20:20:36.681Z,100.00
2023-10-29T20:23:05.256Z,100.00
2023-10-29T20:25:33.677Z,100.00
2023-10-29T20:28:01.958Z,100.00
2023-10-29T20:30:30.891Z,100.00
2023-10-29T20:32:59.418Z,100.00
2023-10-29T20:35:28.783Z,100.00
2023-10-29T20:37:58.272Z,100.00
2023-10-29T20:40:27.808Z,100.00
2023-10-29T20:42:59.214Z,100.00
2023-10-29T20:45:29.049Z,100.00
2023-10-29T20:47:57.516Z,100.00
2023-10-29T20:50:26.496Z,100.00
2023-10-29T20:52:54.509Z,100.00
2023-10-29T20:55:27.571Z,100.00
2023-10-29T20:57:59.281Z,100.00
2023-10-29T21:00:32.359Z,100.00
2023-10-29T21:03:00.878Z,100.00
2023-10-29T21:05:29.764Z,100.00
2023-10-29T21:07:58.535Z,100.00
2023-10-29T21:10:29.351Z,100.00
2023-10-29T21:12:57.672Z,100.00
2023-10-29T21:15:27.881Z,100.00
2023-10-29T21:17:55.943Z,100.00
2023-10-29T21:20:27.685Z,100.00
2023-10-29T21:22:56.020Z,100.00
2023-10-29T21:25:25.016Z,100.00
2023-10-29T21:27:54.601Z,100.00
2023-10-29T21:30:23.784Z,100.00
2023-10-29T21:32:51.901Z,100.00
2023-10-29T21:35:20.701Z,100.00
2023-10-29T21:37:48.709Z,100.00
2023-10-29T21:40:17.663Z,100.00
2023-10-29T21:42:45.898Z,100.00
2023-10-29T21:45:15.973Z,100.00
2023-10-29T21:47:44.402Z,100.00
2023-10-29T21:50:17.906Z,100.00
2023-10-29T21:52:46.771Z,100.00
2023-10-29T21:55:15.242Z,100.00
2023-10-29T21:57:43.327Z,100.00
2023-10-29T22:00:12.404Z,100.00
2023-10-29T22:02:42.251Z,100.00
2023-10-29T22:05:10.846Z,100.00
2023-10-29T22:07:39.168Z,100.00
2023-10-29T22:10:08.505Z,100.00
2023-10-29T22:12:36.692Z,100.00
2023-10-29T22:15:07.554Z,100.00
2023-10-29T22:17:38.811Z,100.00
2023-10-29T22:20:09.520Z,100.00
2023-10-29T22:22:37.541Z,100.00
2023-10-29T22:25:06.310Z,100.00
2023-10-29T22:27:37.171Z,100.00
2023-10-29T22:30:08.303Z,100.00
2023-10-29T22:32:36.657Z,100.00
2023-10-29T22:35:05.317Z,100.00
2023-10-29T22:37:34.872Z,100.00
2023-10-29T22:40:03.212Z,100.00
2023-10-29T22:42:31.312Z,100.00
2023-10-29T22:44:59.654Z,100.00
2023-10-29T22:47:50.009Z,100.00
2023-10-29T22:50:18.460Z,100.00
2023-10-29T22:58:39.745Z,100.00
2023-10-29T22:59:30.813Z,100.00
2023-10-29T23:01:59.179Z,100.00
2023-10-29T23:04:27.313Z,100.00
2023-10-29T23:06:55.652Z,100.00
2023-10-29T23:09:25.071Z,100.00
2023-10-29T23:11:53.459Z,100.00
2023-10-29T23:14:21.552Z,100.00
2023-10-29T23:16:49.929Z,100.00
2023-10-29T23:19:17.977Z,100.00
2023-10-29T23:21:46.348Z,100.00
2023-10-29T23:24:14.530Z,100.00
2023-10-29T23:26:44.292Z,100.00
2023-10-29T23:29:12.602Z,100.00
2023-10-29T23:31:40.970Z,100.00
2023-10-29T23:34:09.035Z,100.00
2023-10-29T23:36:37.390Z,100.00
2023-10-29T23:39:06.245Z,100.00
2023-10-29T23:41:34.741Z,100.00
2023-10-29T23:44:04.215Z,100.00
2023-10-29T23:46:32.541Z,100.00
2023-10-29T23:49:00.766Z,100.00
2023-10-29T23:51:29.088Z,100.00
2023-10-29T23:53:57.130Z,100.00
2023-10-29T23:56:25.473Z,100.00
2023-10-29T23:58:53.464Z,100.00
